createdAt,value
2023-03-30T00:01:43.081Z,11.20
2023-03-30T00:04:29.581Z,11.20
2023-03-30T00:07:16.364Z,11.20
2023-03-30T00:10:04.167Z,11.20
2023-03-30T00:12:52.899Z,11.20
2023-03-30T00:15:39.899Z,11.20
2023-03-30T00:18:26.490Z,11.20
2023-03-30T00:21:12.964Z,11.20
2023-03-30T00:23:59.527Z,11.20
2023-03-30T00:26:45.980Z,11.20
2023-03-30T00:29:34.218Z,11.20
2023-03-30T00:32:21.268Z,11.20
2023-03-30T00:35:08.506Z,11.20
2023-03-30T00:37:54.879Z,11.20
2023-03-30T00:40:41.423Z,11.30
2023-03-30T00:43:28.548Z,11.20
2023-03-30T00:46:16.686Z,11.30
2023-03-30T00:49:06.451Z,11.40
2023-03-30T00:51:53.268Z,11.40
2023-03-30T00:54:40.646Z,11.50
2023-03-30T00:57:29.070Z,11.50
2023-03-30T01:00:17.506Z,11.50
2023-03-30T01:03:11.604Z,11.50
2023-03-30T01:06:01.640Z,11.50
2023-03-30T01:08:48.266Z,11.50
2023-03-30T01:11:34.685Z,11.50
2023-03-30T01:14:20.994Z,11.40
2023-03-30T01:17:17.492Z,11.40
2023-03-30T01:20:32.232Z,11.40
2023-03-30T01:24:03.201Z,11.40
2023-03-30T01:26:55.028Z,11.40
2023-03-30T01:29:58.383Z,11.30
2023-03-30T01:33:14.133Z,11.30
2023-03-30T01:36:25.847Z,11.30
2023-03-30T01:39:38.191Z,11.30
2023-03-30T01:42:33.898Z,11.30
2023-03-30T01:45:27.091Z,11.30
2023-03-30T01:48:18.881Z,11.30
2023-03-30T01:51:09.370Z,11.30
2023-03-30T01:54:02.228Z,11.30
2023-03-30T01:56:54.688Z,11.30
2023-03-30T01:59:45.411Z,11.30
2023-03-30T02:02:33.855Z,11.30
2023-03-30T02:05:22.405Z,11.30
2023-03-30T02:08:12.369Z,11.30
2023-03-30T02:11:00.536Z,11.30
2023-03-30T02:13:51.058Z,11.30
2023-03-30T02:16:42.761Z,11.30
2023-03-30T02:19:30.188Z,11.30
2023-03-30T02:22:18.870Z,11.40
2023-03-30T02:25:06.536Z,11.40
2023-03-30T02:27:53.598Z,11.40
2023-03-30T02:30:45.007Z,11.50
2023-03-30T02:33:40.291Z,11.50
2023-03-30T02:36:42.076Z,11.60
2023-03-30T02:39:40.713Z,11.70
2023-03-30T02:42:50.024Z,11.70
2023-03-30T02:45:47.114Z,11.80
2023-03-30T02:48:41.236Z,11.80
2023-03-30T02:51:39.853Z,11.80
2023-03-30T02:54:36.497Z,11.90
2023-03-30T02:57:32.021Z,11.90
2023-03-30T03:00:23.779Z,12.00
2023-03-30T03:03:18.219Z,12.10
2023-03-30T03:06:05.855Z,12.10
2023-03-30T03:08:54.799Z,12.10
2023-03-30T03:11:41.221Z,12.10
2023-03-30T03:14:27.620Z,12.20
2023-03-30T03:17:16.899Z,12.30
2023-03-30T03:20:10.676Z,12.50
2023-03-30T03:22:57.391Z,12.60
2023-03-30T03:25:43.866Z,12.70
2023-03-30T03:28:31.060Z,12.70
2023-03-30T03:31:17.527Z,12.80
2023-03-30T03:34:04.415Z,12.80
2023-03-30T03:36:54.808Z,12.80
2023-03-30T03:39:41.782Z,12.80
2023-03-30T03:42:28.437Z,12.80
2023-03-30T03:45:15.402Z,12.90
2023-03-30T03:48:01.792Z,13.60
2023-03-30T03:50:51.620Z,12.90
2023-03-30T03:53:39.538Z,13.00
2023-03-30T03:56:26.853Z,13.00
2023-03-30T03:59:13.418Z,13.00
2023-03-30T04:02:00.200Z,13.00
2023-03-30T04:04:46.977Z,13.00
2023-03-30T04:07:34.318Z,13.10
2023-03-30T04:10:22.449Z,13.00
2023-03-30T04:13:08.959Z,13.10
2023-03-30T04:15:55.681Z,13.10
2023-03-30T04:18:41.995Z,13.10
2023-03-30T04:21:29.877Z,13.10
2023-03-30T04:24:17.954Z,13.10
2023-03-30T04:27:09.706Z,13.10
2023-03-30T04:29:57.845Z,14.10
2023-03-30T04:32:44.907Z,13.10
2023-03-30T04:35:32.834Z,13.20
2023-03-30T04:38:22.369Z,13.20
2023-03-30T04:41:10.168Z,13.20
2023-03-30T04:43:57.798Z,13.20
2023-03-30T04:46:44.292Z,13.20
2023-03-30T04:49:30.870Z,13.20
2023-03-30T04:52:17.195Z,13.20
2023-03-30T04:55:03.696Z,13.20
2023-03-30T04:57:50.027Z,13.20
2023-03-30T05:00:38.047Z,13.20
2023-03-30T05:03:25.025Z,13.20
2023-03-30T05:06:13.014Z,13.30
2023-03-30T05:08:59.671Z,13.30
2023-03-30T05:11:46.707Z,13.30
2023-03-30T05:14:33.108Z,13.30
2023-03-30T05:17:20.943Z,13.30
2023-03-30T05:20:10.032Z,13.30
2023-03-30T05:22:56.517Z,13.30
2023-03-30T05:25:45.373Z,13.30
2023-03-30T05:28:32.541Z,13.40
2023-03-30T05:31:20.014Z,13.40
2023-03-30T05:34:07.976Z,13.40
2023-03-30T05:36:54.830Z,13.40
2023-03-30T05:39:41.690Z,13.40
2023-03-30T05:42:27.981Z,13.40
2023-03-30T05:45:14.615Z,13.40
2023-03-30T05:48:01.560Z,13.50
2023-03-30T05:50:50.305Z,13.50
2023-03-30T05:53:37.593Z,13.50
2023-03-30T05:56:25.176Z,13.60
2023-03-30T05:59:12.888Z,13.60
2023-03-30T06:01:59.805Z,13.60
2023-03-30T06:04:46.533Z,13.70
2023-03-30T06:07:34.894Z,13.80
2023-03-30T06:10:21.448Z,13.90
2023-03-30T06:13:08.343Z,14.00
2023-03-30T06:15:55.029Z,14.00
2023-03-30T06:18:41.721Z,14.10
2023-03-30T06:21:28.740Z,14.10
2023-03-30T06:24:16.879Z,14.10
2023-03-30T06:27:03.638Z,14.10
2023-03-30T06:29:50.146Z,14.10
2023-03-30T06:32:36.661Z,14.10
2023-03-30T06:35:23.538Z,14.10
2023-03-30T06:38:10.050Z,14.10
2023-03-30T06:40:57.865Z,14.10
2023-03-30T06:43:44.477Z,14.10
2023-03-30T06:46:31.129Z,14.10
2023-03-30T06:49:17.909Z,14.10
2023-03-30T06:52:05.686Z,14.10
2023-03-30T06:54:54.329Z,14.10
2023-03-30T06:57:42.139Z,14.10
2023-03-30T07:00:28.685Z,14.10
2023-03-30T07:03:18.706Z,14.10
2023-03-30T07:06:07.797Z,14.10
2023-03-30T07:08:54.300Z,14.20
2023-03-30T07:11:41.474Z,14.20
2023-03-30T07:14:29.672Z,14.20
2023-03-30T07:17:16.509Z,14.20
2023-03-30T07:20:04.014Z,14.30
2023-03-30T07:22:50.986Z,14.30
2023-03-30T07:25:37.464Z,14.30
2023-03-30T07:28:24.592Z,14.40
2023-03-30T07:31:14.374Z,14.50
2023-03-30T07:34:00.807Z,14.50
2023-03-30T07:36:47.652Z,14.50
2023-03-30T07:39:35.037Z,14.60
2023-03-30T07:42:21.759Z,14.60
2023-03-30T07:45:09.356Z,14.70
2023-03-30T07:47:57.622Z,14.70
2023-03-30T07:50:44.140Z,14.70
2023-03-30T07:53:30.732Z,14.70
2023-03-30T07:56:17.156Z,14.70
2023-03-30T07:59:04.495Z,14.70
2023-03-30T08:01:52.130Z,14.80
2023-03-30T08:04:40.707Z,14.90
2023-03-30T08:07:28.039Z,14.90
2023-03-30T08:10:14.489Z,14.90
2023-03-30T08:13:01.438Z,15.00
2023-03-30T08:15:48.622Z,15.00
2023-03-30T08:18:37.133Z,15.00
2023-03-30T08:21:26.357Z,14.90
2023-03-30T08:24:12.950Z,14.90
2023-03-30T08:26:59.528Z,14.90
2023-03-30T08:29:45.970Z,14.90
2023-03-30T08:32:32.393Z,14.90
2023-03-30T08:35:19.771Z,14.90
2023-03-30T08:38:07.823Z,14.80
2023-03-30T08:40:54.728Z,14.80
2023-03-30T08:43:53.882Z,14.80
2023-03-30T08:46:42.366Z,14.80
2023-03-30T08:49:31.576Z,14.90
2023-03-30T08:52:23.692Z,14.90
2023-03-30T08:55:22.502Z,14.90
2023-03-30T08:58:17.359Z,15.00
2023-03-30T09:01:12.581Z,15.00
2023-03-30T09:04:08.169Z,15.00
2023-03-30T09:06:57.345Z,15.00
2023-03-30T09:09:49.058Z,15.10
2023-03-30T09:12:45.063Z,15.20
2023-03-30T09:15:36.132Z,15.30
2023-03-30T09:18:27.118Z,15.40
2023-03-30T09:21:14.931Z,15.30
2023-03-30T09:24:07.318Z,15.40
2023-03-30T09:26:59.654Z,15.40
2023-03-30T09:29:51.622Z,15.30
2023-03-30T09:32:44.806Z,15.30
2023-03-30T09:35:39.685Z,15.30
2023-03-30T09:38:26.052Z,15.30
2023-03-30T09:41:25.850Z,15.30
2023-03-30T09:44:21.997Z,15.30
2023-03-30T09:47:23.129Z,15.20
2023-03-30T09:50:17.194Z,15.20
2023-03-30T09:53:07.151Z,15.00
2023-03-30T09:56:01.228Z,14.90
2023-03-30T09:58:48.145Z,14.80
2023-03-30T10:01:38.918Z,14.50
2023-03-30T10:04:26.976Z,14.20
2023-03-30T10:07:23.429Z,14.10
2023-03-30T10:10:17.858Z,13.90
2023-03-30T10:13:07.980Z,13.90
2023-03-30T10:15:55.785Z,14.00
2023-03-30T10:18:44.805Z,14.00
2023-03-30T10:21:37.340Z,14.00
2023-03-30T10:24:26.368Z,14.10
2023-03-30T10:27:14.401Z,14.00
2023-03-30T10:30:10.236Z,14.20
2023-03-30T10:32:59.601Z,14.10
2023-03-30T10:35:49.923Z,14.20
2023-03-30T10:38:41.291Z,14.20
2023-03-30T10:41:27.728Z,14.10
2023-03-30T10:44:21.827Z,14.30
2023-03-30T10:47:26.327Z,14.60
2023-03-30T10:50:24.080Z,14.90
2023-03-30T10:53:26.277Z,15.00
2023-03-30T10:56:24.500Z,15.10
2023-03-30T10:59:35.470Z,15.50
2023-03-30T11:02:52.697Z,15.70
2023-03-30T11:05:42.229Z,16.00
2023-03-30T11:08:31.454Z,16.30
2023-03-30T11:11:23.020Z,16.10
2023-03-30T11:14:14.527Z,15.80
2023-03-30T11:17:07.417Z,16.00
2023-03-30T11:19:57.811Z,15.70
2023-03-30T11:22:48.259Z,15.60
2023-03-30T11:25:40.666Z,15.50
2023-03-30T11:28:54.056Z,15.30
2023-03-30T11:31:49.857Z,15.20
2023-03-30T11:34:45.028Z,15.30
2023-03-30T11:37:37.219Z,15.40
2023-03-30T11:40:27.973Z,15.60
2023-03-30T11:43:15.213Z,15.80
2023-03-30T11:46:11.191Z,15.70
2023-03-30T11:49:10.278Z,15.70
2023-03-30T11:52:10.048Z,16.10
2023-03-30T11:55:20.977Z,16.00
2023-03-30T11:58:16.808Z,16.20
2023-03-30T12:01:23.597Z,16.20
2023-03-30T12:04:12.746Z,16.30
2023-03-30T12:07:02.337Z,16.30
2023-03-30T12:09:54.763Z,16.20
2023-03-30T12:12:42.586Z,16.10
2023-03-30T12:15:40.417Z,16.00
2023-03-30T12:18:38.193Z,15.90
2023-03-30T12:21:33.051Z,15.70
2023-03-30T12:24:24.507Z,15.70
2023-03-30T12:27:12.013Z,15.70
2023-03-30T12:30:14.254Z,15.60
2023-03-30T12:33:03.309Z,14.30
2023-03-30T12:36:00.648Z,14.20
2023-03-30T12:38:50.238Z,14.20
2023-03-30T12:41:44.279Z,14.20
2023-03-30T12:44:52.490Z,14.10
2023-03-30T12:47:54.080Z,14.10
2023-03-30T12:50:52.614Z,14.40
2023-03-30T12:53:57.458Z,14.80
2023-03-30T12:56:52.172Z,15.30
2023-03-30T13:00:17.593Z,15.60
2023-03-30T13:03:28.008Z,16.00
2023-03-30T13:06:22.786Z,16.10
2023-03-30T13:09:36.627Z,16.10
2023-03-30T13:12:38.486Z,16.30
2023-03-30T13:15:42.451Z,16.50
2023-03-30T13:18:35.599Z,16.50
2023-03-30T13:21:26.806Z,16.60
2023-03-30T13:24:28.478Z,16.80
2023-03-30T13:27:28.923Z,16.80
2023-03-30T13:30:16.500Z,16.90
2023-03-30T13:33:12.445Z,17.10
2023-03-30T13:36:08.822Z,16.80
2023-03-30T13:39:09.482Z,16.70
2023-03-30T13:42:08.291Z,16.70
2023-03-30T13:45:02.543Z,16.50
2023-03-30T13:47:58.820Z,16.20
2023-03-30T13:50:50.475Z,16.20
2023-03-30T13:53:42.929Z,15.80
2023-03-30T13:56:33.331Z,16.00
2023-03-30T13:59:23.022Z,16.00
2023-03-30T14:02:16.941Z,16.00
2023-03-30T14:05:15.384Z,15.90
2023-03-30T14:08:01.894Z,15.90
2023-03-30T14:10:49.324Z,16.00
2023-03-30T14:13:38.654Z,16.10
2023-03-30T14:16:27.109Z,16.10
2023-03-30T14:19:22.896Z,16.30
2023-03-30T14:22:13.586Z,16.40
2023-03-30T14:25:02.046Z,16.60
2023-03-30T14:27:48.760Z,16.80
2023-03-30T14:30:35.634Z,16.60
2023-03-30T14:33:23.266Z,16.20
2023-03-30T14:36:13.056Z,16.30
2023-03-30T14:38:59.797Z,16.40
2023-03-30T14:41:46.305Z,16.40
2023-03-30T14:44:32.834Z,16.50
2023-03-30T14:47:22.249Z,16.50
2023-03-30T14:50:09.790Z,15.00
2023-03-30T14:52:57.791Z,16.20
2023-03-30T14:55:44.733Z,16.00
2023-03-30T14:58:33.485Z,15.80
2023-03-30T15:01:31.059Z,15.70
2023-03-30T15:04:19.326Z,15.40
2023-03-30T15:07:06.566Z,15.30
2023-03-30T15:09:58.553Z,14.90
2023-03-30T15:12:48.078Z,14.50
2023-03-30T15:15:35.008Z,14.60
2023-03-30T15:18:26.462Z,14.60
2023-03-30T15:21:14.942Z,15.00
2023-03-30T15:24:01.658Z,15.00
2023-03-30T15:26:52.147Z,14.90
2023-03-30T15:29:41.738Z,14.90
2023-03-30T15:32:35.291Z,15.00
2023-03-30T15:35:24.945Z,14.90
2023-03-30T15:38:17.324Z,14.80
2023-03-30T15:41:04.583Z,14.70
2023-03-30T15:43:58.284Z,14.80
2023-03-30T15:46:46.512Z,15.20
2023-03-30T15:49:40.987Z,15.50
2023-03-30T15:52:35.441Z,15.40
2023-03-30T15:55:28.117Z,15.50
2023-03-30T15:58:17.523Z,15.50
2023-03-30T16:01:06.194Z,15.40
2023-03-30T16:03:57.654Z,15.30
2023-03-30T16:06:46.702Z,15.30
2023-03-30T16:09:34.096Z,15.30
2023-03-30T16:12:25.293Z,15.20
2023-03-30T16:15:15.569Z,15.10
2023-03-30T16:18:03.572Z,15.00
2023-03-30T16:20:50.126Z,15.00
2023-03-30T16:23:36.661Z,14.90
2023-03-30T16:26:23.102Z,14.90
2023-03-30T16:29:19.220Z,14.90
2023-03-30T16:32:06.193Z,14.80
2023-03-30T16:34:54.509Z,14.70
2023-03-30T16:37:41.948Z,14.50
2023-03-30T16:40:34.044Z,14.40
2023-03-30T16:43:21.186Z,14.20
2023-03-30T16:46:07.898Z,14.00
2023-03-30T16:48:54.842Z,14.00
2023-03-30T16:51:42.657Z,14.10
2023-03-30T16:54:32.471Z,14.20
2023-03-30T16:57:19.574Z,14.00
2023-03-30T17:00:17.166Z,14.10
2023-03-30T17:03:03.582Z,14.20
2023-03-30T17:05:51.379Z,14.10
2023-03-30T17:08:42.441Z,14.00
2023-03-30T17:11:29.644Z,14.00
2023-03-30T17:14:16.624Z,14.00
2023-03-30T17:17:03.041Z,13.90
2023-03-30T17:19:49.971Z,13.90
2023-03-30T17:22:36.242Z,13.70
2023-03-30T17:25:26.525Z,15.20
2023-03-30T17:28:21.288Z,13.90
2023-03-30T17:31:13.551Z,13.90
2023-03-30T17:34:00.143Z,13.90
2023-03-30T17:36:46.729Z,13.90
2023-03-30T17:39:33.877Z,13.80
2023-03-30T17:42:21.915Z,13.90
2023-03-30T17:45:09.862Z,13.90
2023-03-30T17:47:57.129Z,14.60
2023-03-30T17:50:46.338Z,13.90
2023-03-30T17:53:33.102Z,13.90
2023-03-30T17:56:19.797Z,13.80
2023-03-30T17:59:11.251Z,13.80
2023-03-30T18:01:57.877Z,13.90
2023-03-30T18:04:44.673Z,13.90
2023-03-30T18:07:33.586Z,13.90
2023-03-30T18:10:25.787Z,13.80
2023-03-30T18:13:12.796Z,13.80
2023-03-30T18:16:01.717Z,13.80
2023-03-30T18:18:48.217Z,13.80
2023-03-30T18:21:34.727Z,13.80
2023-03-30T18:24:21.016Z,13.70
2023-03-30T18:27:07.355Z,13.80
2023-03-30T18:29:54.087Z,13.60
2023-03-30T18:32:46.967Z,13.50
2023-03-30T18:35:36.145Z,13.60
2023-03-30T18:38:25.243Z,13.50
2023-03-30T18:41:12.871Z,13.60
2023-03-30T18:44:00.101Z,13.50
2023-03-30T18:46:51.111Z,13.50
2023-03-30T18:49:39.366Z,13.50
2023-03-30T18:52:25.954Z,13.50
2023-03-30T18:55:13.622Z,13.50
2023-03-30T18:58:00.370Z,13.50
2023-03-30T19:00:48.677Z,13.50
2023-03-30T19:03:35.929Z,13.40
2023-03-30T19:06:24.287Z,13.30
2023-03-30T19:09:11.931Z,13.40
2023-03-30T19:11:58.277Z,13.40
2023-03-30T19:14:44.607Z,13.30
2023-03-30T19:17:31.079Z,13.30
2023-03-30T19:20:18.350Z,13.20
2023-03-30T19:23:06.296Z,13.20
2023-03-30T19:25:52.972Z,13.20
2023-03-30T19:28:40.112Z,13.20
2023-03-30T19:31:26.793Z,13.20
2023-03-30T19:34:13.184Z,13.20
2023-03-30T19:36:59.664Z,13.90
2023-03-30T19:39:47.458Z,13.10
2023-03-30T19:42:34.363Z,13.10
2023-03-30T19:45:23.691Z,13.10
2023-03-30T19:48:10.835Z,13.10
2023-03-30T19:50:57.378Z,13.20
2023-03-30T19:53:43.811Z,13.10
2023-03-30T19:56:31.603Z,13.10
2023-03-30T19:59:20.355Z,13.00
2023-03-30T20:02:07.062Z,13.00
2023-03-30T20:04:54.228Z,13.10
2023-03-30T20:07:41.562Z,13.00
2023-03-30T20:10:28.255Z,13.10
2023-03-30T20:13:17.094Z,13.10
2023-03-30T20:16:04.137Z,13.10
2023-03-30T20:18:54.627Z,13.10
2023-03-30T20:21:41.259Z,13.00
2023-03-30T20:24:27.956Z,13.00
2023-03-30T20:27:14.502Z,13.00
2023-03-30T20:30:02.967Z,13.00
2023-03-30T20:33:03.662Z,13.00
2023-03-30T20:35:53.213Z,13.00
2023-03-30T20:38:41.348Z,13.00
2023-03-30T20:41:30.094Z,12.90
2023-03-30T20:44:18.107Z,12.90
2023-03-30T20:47:08.616Z,12.80
2023-03-30T20:49:55.617Z,12.80
2023-03-30T20:52:42.147Z,12.70
2023-03-30T20:55:29.005Z,12.60
2023-03-30T20:58:15.569Z,12.60
2023-03-30T21:01:10.954Z,12.60
2023-03-30T21:04:01.441Z,12.60
2023-03-30T21:06:49.511Z,12.60
2023-03-30T21:09:36.320Z,12.60
2023-03-30T21:12:23.058Z,12.60
2023-03-30T21:15:10.513Z,12.50
2023-03-30T21:17:57.023Z,12.40
2023-03-30T21:20:44.806Z,12.50
2023-03-30T21:23:31.312Z,12.50
2023-03-30T21:26:18.579Z,12.50
2023-03-30T21:29:05.106Z,12.60
2023-03-30T21:31:51.841Z,12.60
2023-03-30T21:34:38.292Z,12.60
2023-03-30T21:37:25.998Z,12.60
2023-03-30T21:40:13.380Z,12.60
2023-03-30T21:42:59.752Z,12.60
2023-03-30T21:45:51.672Z,12.60
2023-03-30T21:48:39.909Z,12.60
2023-03-30T21:51:28.417Z,12.60
2023-03-30T21:54:17.633Z,12.60
2023-03-30T21:57:04.718Z,12.70
2023-03-30T21:59:51.586Z,12.60
2023-03-30T22:02:38.395Z,12.70
2023-03-30T22:05:25.604Z,12.70
2023-03-30T22:08:14.649Z,12.70
2023-03-30T22:11:04.704Z,12.70
2023-03-30T22:13:52.310Z,12.70
2023-03-30T22:16:39.286Z,12.70
2023-03-30T22:19:26.470Z,12.70
2023-03-30T22:22:12.970Z,12.80
2023-03-30T22:24:59.448Z,12.80
2023-03-30T22:27:47.542Z,12.70
2023-03-30T22:30:33.826Z,12.70
2023-03-30T22:33:20.768Z,12.80
2023-03-30T22:36:17.238Z,12.80
2023-03-30T22:39:04.321Z,12.80
2023-03-30T22:41:50.966Z,12.80
2023-03-30T22:44:38.587Z,12.70
2023-03-30T22:47:25.483Z,12.80
2023-03-30T22:50:12.601Z,12.70
2023-03-30T22:52:58.960Z,12.70
2023-03-30T22:55:48.090Z,12.80
2023-03-30T22:58:34.718Z,12.70
2023-03-30T23:01:22.491Z,12.70
2023-03-30T23:04:09.627Z,12.70
2023-03-30T23:06:56.053Z,12.60
2023-03-30T23:09:47.361Z,12.70
2023-03-30T23:12:33.886Z,12.60
2023-03-30T23:15:22.094Z,12.60
2023-03-30T23:18:10.091Z,12.70
2023-03-30T23:20:58.062Z,12.70
2023-03-30T23:23:44.700Z,12.70
2023-03-30T23:26:31.188Z,12.60
2023-03-30T23:29:17.951Z,12.60
2023-03-30T23:32:04.445Z,12.60
2023-03-30T23:34:52.845Z,12.50
2023-03-30T23:37:40.235Z,12.50
2023-03-30T23:40:26.867Z,12.50
2023-03-30T23:43:13.272Z,12.40
2023-03-30T23:46:00.023Z,12.50
2023-03-30T23:48:46.848Z,12.40
2023-03-30T23:51:34.998Z,12.40
2023-03-30T23:54:22.242Z,12.30
2023-03-30T23:59:36.938Z,12.40
